sensor_id;sensor_type;location;lat;lon;timestamp;P1;durP1;ratioP1;P2;durP2;ratioP2
3427;SDS011;1727;42.624;23.406;2023-09-30T00:01:23;8.50;;;6.90;;
3427;SDS011;1727;42.624;23.406;2023-09-30T00:03:50;8.63;;;6.70;;
3427;SDS011;1727;42.624;23.406;2023-09-30T00:06:17;20.43;;;6.70;;
3427;SDS011;1727;42.624;23.406;2023-09-30T00:08:44;7.13;;;6.40;;
3427;SDS011;1727;42.624;23.406;2023-09-30T00:11:14;8.77;;;6.30;;
3427;SDS011;1727;42.624;23.406;2023-09-30T00:13:42;7.27;;;6.37;;
3427;SDS011;1727;42.624;23.406;2023-09-30T00:16:09;12.80;;;7.03;;
3427;SDS011;1727;42.624;23.406;2023-09-30T00:18:35;8.47;;;6.43;;
3427;SDS011;1727;42.624;23.406;2023-09-30T00:21:02;12.07;;;6.70;;
3427;SDS011;1727;42.624;23.406;2023-09-30T00:23:29;11.60;;;6.90;;
3427;SDS011;1727;42.624;23.406;2023-09-30T00:25:56;17.00;;;6.30;;
3427;SDS011;1727;42.624;23.406;2023-09-30T00:28:24;12.23;;;6.70;;
3427;SDS011;1727;42.624;23.406;2023-09-30T00:30:51;10.80;;;5.87;;
3427;SDS011;1727;42.624;23.406;2023-09-30T00:33:17;9.77;;;6.60;;
3427;SDS011;1727;42.624;23.406;2023-09-30T00:35:44;7.20;;;6.50;;
3427;SDS011;1727;42.624;23.406;2023-09-30T00:38:11;12.30;;;7.33;;
3427;SDS011;1727;42.624;23.406;2023-09-30T00:40:39;7.80;;;5.80;;
3427;SDS011;1727;42.624;23.406;2023-09-30T00:43:06;9.00;;;7.13;;
3427;SDS011;1727;42.624;23.406;2023-09-30T00:45:34;11.10;;;6.90;;
3427;SDS011;1727;42.624;23.406;2023-09-30T00:48:03;9.47;;;6.00;;
3427;SDS011;1727;42.624;23.406;2023-09-30T00:50:31;11.97;;;5.83;;
3427;SDS011;1727;42.624;23.406;2023-09-30T00:52:58;13.00;;;6.13;;
3427;SDS011;1727;42.624;23.406;2023-09-30T00:55:25;8.20;;;6.10;;
3427;SDS011;1727;42.624;23.406;2023-09-30T00:57:52;8.10;;;6.10;;
3427;SDS011;1727;42.624;23.406;2023-09-30T01:00:19;7.07;;;6.20;;
3427;SDS011;1727;42.624;23.406;2023-09-30T01:02:47;7.07;;;6.37;;
3427;SDS011;1727;42.624;23.406;2023-09-30T01:05:14;9.77;;;6.10;;
3427;SDS011;1727;42.624;23.406;2023-09-30T01:07:40;11.17;;;5.50;;
3427;SDS011;1727;42.624;23.406;2023-09-30T01:10:07;7.57;;;6.40;;
3427;SDS011;1727;42.624;23.406;2023-09-30T01:12:34;11.23;;;6.00;;
3427;SDS011;1727;42.624;23.406;2023-09-30T01:15:02;10.63;;;7.03;;
3427;SDS011;1727;42.624;23.406;2023-09-30T01:17:31;8.50;;;6.10;;
3427;SDS011;1727;42.624;23.406;2023-09-30T01:19:59;6.73;;;6.00;;
3427;SDS011;1727;42.624;23.406;2023-09-30T01:22:27;14.00;;;6.33;;
3427;SDS011;1727;42.624;23.406;2023-09-30T01:24:55;10.30;;;7.40;;
3427;SDS011;1727;42.624;23.406;2023-09-30T01:27:22;7.70;;;6.23;;
3427;SDS011;1727;42.624;23.406;2023-09-30T01:29:48;13.00;;;6.70;;
3427;SDS011;1727;42.624;23.406;2023-09-30T01:32:15;17.80;;;6.60;;
3427;SDS011;1727;42.624;23.406;2023-09-30T01:34:42;12.17;;;6.30;;
3427;SDS011;1727;42.624;23.406;2023-09-30T01:37:09;7.43;;;6.43;;
3427;SDS011;1727;42.624;23.406;2023-09-30T01:39:37;11.20;;;6.40;;
3427;SDS011;1727;42.624;23.406;2023-09-30T01:42:04;8.60;;;6.77;;
3427;SDS011;1727;42.624;23.406;2023-09-30T01:44:31;7.17;;;6.47;;
3427;SDS011;1727;42.624;23.406;2023-09-30T01:46:58;14.90;;;6.50;;
3427;SDS011;1727;42.624;23.406;2023-09-30T01:49:25;8.13;;;5.40;;
3427;SDS011;1727;42.624;23.406;2023-09-30T01:51:52;9.07;;;6.97;;
3427;SDS011;1727;42.624;23.406;2023-09-30T01:54:19;14.23;;;7.83;;
3427;SDS011;1727;42.624;23.406;2023-09-30T01:56:47;20.03;;;6.40;;
3427;SDS011;1727;42.624;23.406;2023-09-30T01:59:15;9.43;;;7.23;;
3427;SDS011;1727;42.624;23.406;2023-09-30T02:01:43;12.40;;;5.80;;
3427;SDS011;1727;42.624;23.406;2023-09-30T02:04:11;7.07;;;6.47;;
3427;SDS011;1727;42.624;23.406;2023-09-30T02:06:38;7.13;;;6.43;;
3427;SDS011;1727;42.624;23.406;2023-09-30T02:09:05;6.67;;;5.97;;
3427;SDS011;1727;42.624;23.406;2023-09-30T02:11:33;13.20;;;7.00;;
3427;SDS011;1727;42.624;23.406;2023-09-30T02:14:03;11.37;;;7.43;;
3427;SDS011;1727;42.624;23.406;2023-09-30T02:16:31;7.57;;;6.90;;
3427;SDS011;1727;42.624;23.406;2023-09-30T02:18:58;8.07;;;6.80;;
3427;SDS011;1727;42.624;23.406;2023-09-30T02:21:24;7.37;;;6.57;;
3427;SDS011;1727;42.624;23.406;2023-09-30T02:23:52;15.33;;;6.97;;
3427;SDS011;1727;42.624;23.406;2023-09-30T02:26:20;14.80;;;7.70;;
3427;SDS011;1727;42.624;23.406;2023-09-30T02:28:47;10.30;;;7.20;;
3427;SDS011;1727;42.624;23.406;2023-09-30T02:31:15;11.00;;;7.70;;
3427;SDS011;1727;42.624;23.406;2023-09-30T02:33:43;12.53;;;7.90;;
3427;SDS011;1727;42.624;23.406;2023-09-30T02:36:09;16.40;;;7.80;;
3427;SDS011;1727;42.624;23.406;2023-09-30T02:38:37;10.83;;;7.30;;
3427;SDS011;1727;42.624;23.406;2023-09-30T02:41:04;11.47;;;7.83;;
3427;SDS011;1727;42.624;23.406;2023-09-30T02:43:31;13.33;;;7.30;;
3427;SDS011;1727;42.624;23.406;2023-09-30T02:45:58;10.23;;;7.50;;
3427;SDS011;1727;42.624;23.406;2023-09-30T02:48:26;10.40;;;7.63;;
3427;SDS011;1727;42.624;23.406;2023-09-30T02:50:53;10.57;;;7.10;;
3427;SDS011;1727;42.624;23.406;2023-09-30T02:53:19;10.60;;;7.60;;
3427;SDS011;1727;42.624;23.406;2023-09-30T02:55:47;19.07;;;8.37;;
3427;SDS011;1727;42.624;23.406;2023-09-30T02:58:14;10.83;;;8.50;;
3427;SDS011;1727;42.624;23.406;2023-09-30T03:00:47;13.13;;;9.17;;
3427;SDS011;1727;42.624;23.406;2023-09-30T03:03:14;10.33;;;8.30;;
3427;SDS011;1727;42.624;23.406;2023-09-30T03:05:43;10.00;;;8.10;;
3427;SDS011;1727;42.624;23.406;2023-09-30T03:08:10;14.07;;;8.30;;
3427;SDS011;1727;42.624;23.406;2023-09-30T03:10:37;9.77;;;8.20;;
3427;SDS011;1727;42.624;23.406;2023-09-30T03:13:05;10.37;;;7.60;;
3427;SDS011;1727;42.624;23.406;2023-09-30T03:15:34;13.27;;;8.83;;
3427;SDS011;1727;42.624;23.406;2023-09-30T03:18:01;11.57;;;8.40;;
3427;SDS011;1727;42.624;23.406;2023-09-30T03:20:28;15.53;;;7.77;;
3427;SDS011;1727;42.624;23.406;2023-09-30T03:22:57;10.97;;;8.67;;
3427;SDS011;1727;42.624;23.406;2023-09-30T03:25:24;10.73;;;8.30;;
3427;SDS011;1727;42.624;23.406;2023-09-30T03:27:52;12.00;;;7.60;;
3427;SDS011;1727;42.624;23.406;2023-09-30T03:30:18;13.23;;;7.77;;
3427;SDS011;1727;42.624;23.406;2023-09-30T03:32:46;11.90;;;7.70;;
3427;SDS011;1727;42.624;23.406;2023-09-30T03:35:12;14.60;;;7.70;;
3427;SDS011;1727;42.624;23.406;2023-09-30T03:37:42;21.43;;;8.17;;
3427;SDS011;1727;42.624;23.406;2023-09-30T03:40:11;13.20;;;8.13;;
3427;SDS011;1727;42.624;23.406;2023-09-30T03:42:39;11.90;;;8.90;;
3427;SDS011;1727;42.624;23.406;2023-09-30T03:45:09;9.03;;;7.53;;
3427;SDS011;1727;42.624;23.406;2023-09-30T03:47:36;17.80;;;7.57;;
3427;SDS011;1727;42.624;23.406;2023-09-30T03:50:04;12.77;;;8.17;;
3427;SDS011;1727;42.624;23.406;2023-09-30T03:52:37;11.07;;;8.13;;
3427;SDS011;1727;42.624;23.406;2023-09-30T03:55:05;12.07;;;8.27;;
3427;SDS011;1727;42.624;23.406;2023-09-30T03:57:34;11.43;;;7.90;;
3427;SDS011;1727;42.624;23.406;2023-09-30T04:00:01;14.20;;;8.23;;
3427;SDS011;1727;42.624;23.406;2023-09-30T04:02:31;15.87;;;8.73;;
3427;SDS011;1727;42.624;23.406;2023-09-30T04:04:57;10.77;;;8.40;;
3427;SDS011;1727;42.624;23.406;2023-09-30T04:07:25;12.90;;;8.07;;
3427;SDS011;1727;42.624;23.406;2023-09-30T04:09:53;11.50;;;7.87;;
3427;SDS011;1727;42.624;23.406;2023-09-30T04:12:20;10.90;;;9.57;;
3427;SDS011;1727;42.624;23.406;2023-09-30T04:14:50;22.87;;;9.63;;
3427;SDS011;1727;42.624;23.406;2023-09-30T04:17:17;9.30;;;8.17;;
3427;SDS011;1727;42.624;23.406;2023-09-30T04:19:43;14.23;;;8.43;;
3427;SDS011;1727;42.624;23.406;2023-09-30T04:22:11;13.27;;;8.90;;
3427;SDS011;1727;42.624;23.406;2023-09-30T04:24:38;14.27;;;9.37;;
3427;SDS011;1727;42.624;23.406;2023-09-30T04:27:04;19.40;;;8.53;;
3427;SDS011;1727;42.624;23.406;2023-09-30T04:29:32;15.73;;;8.07;;
3427;SDS011;1727;42.624;23.406;2023-09-30T04:32:01;9.20;;;7.50;;
3427;SDS011;1727;42.624;23.406;2023-09-30T04:34:28;16.77;;;8.80;;
3427;SDS011;1727;42.624;23.406;2023-09-30T04:36:54;18.83;;;7.80;;
3427;SDS011;1727;42.624;23.406;2023-09-30T04:39:21;14.83;;;9.30;;
3427;SDS011;1727;42.624;23.406;2023-09-30T04:41:48;9.27;;;8.40;;
3427;SDS011;1727;42.624;23.406;2023-09-30T04:44:15;17.10;;;9.00;;
3427;SDS011;1727;42.624;23.406;2023-09-30T04:46:42;11.13;;;8.13;;
3427;SDS011;1727;42.624;23.406;2023-09-30T04:49:12;13.43;;;8.77;;
3427;SDS011;1727;42.624;23.406;2023-09-30T04:51:40;22.33;;;12.43;;
3427;SDS011;1727;42.624;23.406;2023-09-30T04:54:07;18.00;;;11.43;;
3427;SDS011;1727;42.624;23.406;2023-09-30T04:56:35;38.13;;;25.30;;
3427;SDS011;1727;42.624;23.406;2023-09-30T04:59:04;52.23;;;32.30;;
3427;SDS011;1727;42.624;23.406;2023-09-30T05:01:31;66.93;;;35.97;;
3427;SDS011;1727;42.624;23.406;2023-09-30T05:03:58;60.20;;;33.30;;
3427;SDS011;1727;42.624;23.406;2023-09-30T05:06:26;49.83;;;31.07;;
3427;SDS011;1727;42.624;23.406;2023-09-30T05:08:53;62.67;;;24.97;;
3427;SDS011;1727;42.624;23.406;2023-09-30T05:11:20;34.50;;;22.73;;
3427;SDS011;1727;42.624;23.406;2023-09-30T05:13:47;35.47;;;23.37;;
3427;SDS011;1727;42.624;23.406;2023-09-30T05:16:14;37.33;;;25.87;;
3427;SDS011;1727;42.624;23.406;2023-09-30T05:18:41;24.07;;;15.90;;
3427;SDS011;1727;42.624;23.406;2023-09-30T05:21:08;27.17;;;16.30;;
3427;SDS011;1727;42.624;23.406;2023-09-30T05:23:36;17.50;;;10.27;;
3427;SDS011;1727;42.624;23.406;2023-09-30T05:26:03;23.53;;;11.97;;
3427;SDS011;1727;42.624;23.406;2023-09-30T05:28:31;25.43;;;11.50;;
3427;SDS011;1727;42.624;23.406;2023-09-30T05:30:59;23.87;;;10.43;;
3427;SDS011;1727;42.624;23.406;2023-09-30T05:33:27;18.20;;;10.20;;
3427;SDS011;1727;42.624;23.406;2023-09-30T05:35:54;21.43;;;10.10;;
3427;SDS011;1727;42.624;23.406;2023-09-30T05:38:21;17.77;;;10.13;;
3427;SDS011;1727;42.624;23.406;2023-09-30T05:40:49;22.63;;;10.80;;
3427;SDS011;1727;42.624;23.406;2023-09-30T05:43:16;11.20;;;9.17;;
3427;SDS011;1727;42.624;23.406;2023-09-30T05:45:43;12.33;;;9.63;;
3427;SDS011;1727;42.624;23.406;2023-09-30T05:48:14;12.90;;;9.23;;
3427;SDS011;1727;42.624;23.406;2023-09-30T05:50:41;19.07;;;9.03;;
3427;SDS011;1727;42.624;23.406;2023-09-30T05:53:09;12.73;;;8.83;;
3427;SDS011;1727;42.624;23.406;2023-09-30T05:55:37;12.27;;;9.13;;
3427;SDS011;1727;42.624;23.406;2023-09-30T05:58:08;21.90;;;10.23;;
3427;SDS011;1727;42.624;23.406;2023-09-30T06:00:35;17.73;;;9.63;;
3427;SDS011;1727;42.624;23.406;2023-09-30T06:03:03;14.17;;;8.70;;
3427;SDS011;1727;42.624;23.406;2023-09-30T06:05:31;20.80;;;9.70;;
3427;SDS011;1727;42.624;23.406;2023-09-30T06:07:59;21.07;;;9.97;;
3427;SDS011;1727;42.624;23.406;2023-09-30T06:10:29;16.87;;;9.00;;
3427;SDS011;1727;42.624;23.406;2023-09-30T06:12:55;18.90;;;10.30;;
3427;SDS011;1727;42.624;23.406;2023-09-30T06:15:25;19.70;;;8.60;;
3427;SDS011;1727;42.624;23.406;2023-09-30T06:17:52;12.63;;;9.57;;
3427;SDS011;1727;42.624;23.406;2023-09-30T06:20:19;15.13;;;10.20;;
3427;SDS011;1727;42.624;23.406;2023-09-30T06:22:47;20.90;;;8.90;;
3427;SDS011;1727;42.624;23.406;2023-09-30T06:25:15;10.73;;;8.20;;
3427;SDS011;1727;42.624;23.406;2023-09-30T06:27:43;16.73;;;8.50;;
3427;SDS011;1727;42.624;23.406;2023-09-30T06:30:10;11.20;;;8.30;;
3427;SDS011;1727;42.624;23.406;2023-09-30T06:32:39;13.30;;;7.97;;
3427;SDS011;1727;42.624;23.406;2023-09-30T06:35:07;12.10;;;9.07;;
3427;SDS011;1727;42.624;23.406;2023-09-30T06:37:35;12.20;;;8.27;;
3427;SDS011;1727;42.624;23.406;2023-09-30T06:40:04;25.63;;;9.37;;
3427;SDS011;1727;42.624;23.406;2023-09-30T06:42:33;15.13;;;9.47;;
3427;SDS011;1727;42.624;23.406;2023-09-30T06:45:02;16.37;;;8.60;;
3427;SDS011;1727;42.624;23.406;2023-09-30T06:47:31;14.80;;;8.00;;
3427;SDS011;1727;42.624;23.406;2023-09-30T06:50:00;11.23;;;8.50;;
3427;SDS011;1727;42.624;23.406;2023-09-30T06:52:32;18.50;;;7.70;;
3427;SDS011;1727;42.624;23.406;2023-09-30T06:55:01;21.77;;;7.63;;
3427;SDS011;1727;42.624;23.406;2023-09-30T06:57:31;13.53;;;8.10;;
3427;SDS011;1727;42.624;23.406;2023-09-30T06:59:58;12.00;;;9.80;;
3427;SDS011;1727;42.624;23.406;2023-09-30T07:02:25;32.13;;;10.43;;
3427;SDS011;1727;42.624;23.406;2023-09-30T07:04:53;16.27;;;8.63;;
3427;SDS011;1727;42.624;23.406;2023-09-30T07:07:21;13.57;;;9.00;;
3427;SDS011;1727;42.624;23.406;2023-09-30T07:09:48;17.17;;;9.43;;
3427;SDS011;1727;42.624;23.406;2023-09-30T07:12:14;12.83;;;7.40;;
3427;SDS011;1727;42.624;23.406;2023-09-30T07:14:41;11.83;;;8.43;;
3427;SDS011;1727;42.624;23.406;2023-09-30T07:17:08;8.27;;;7.23;;
3427;SDS011;1727;42.624;23.406;2023-09-30T07:19:35;15.53;;;7.47;;
3427;SDS011;1727;42.624;23.406;2023-09-30T07:22:02;17.50;;;7.70;;
3427;SDS011;1727;42.624;23.406;2023-09-30T07:24:30;7.80;;;7.00;;
3427;SDS011;1727;42.624;23.406;2023-09-30T07:26:59;12.87;;;7.20;;
3427;SDS011;1727;42.624;23.406;2023-09-30T07:29:26;12.70;;;7.60;;
3427;SDS011;1727;42.624;23.406;2023-09-30T07:31:53;13.00;;;7.80;;
3427;SDS011;1727;42.624;23.406;2023-09-30T07:34:20;12.60;;;7.90;;
3427;SDS011;1727;42.624;23.406;2023-09-30T07:36:46;8.90;;;6.80;;
3427;SDS011;1727;42.624;23.406;2023-09-30T07:39:13;12.53;;;7.77;;
3427;SDS011;1727;42.624;23.406;2023-09-30T07:41:41;20.07;;;7.47;;
3427;SDS011;1727;42.624;23.406;2023-09-30T07:44:08;19.53;;;8.87;;
3427;SDS011;1727;42.624;23.406;2023-09-30T07:46:35;15.73;;;8.27;;
3427;SDS011;1727;42.624;23.406;2023-09-30T07:49:02;9.27;;;7.93;;
3427;SDS011;1727;42.624;23.406;2023-09-30T07:51:30;14.63;;;7.60;;
3427;SDS011;1727;42.624;23.406;2023-09-30T07:53:56;10.10;;;7.37;;
3427;SDS011;1727;42.624;23.406;2023-09-30T07:56:23;17.70;;;8.43;;
3427;SDS011;1727;42.624;23.406;2023-09-30T07:58:51;12.30;;;8.90;;
3427;SDS011;1727;42.624;23.406;2023-09-30T08:01:18;16.73;;;8.13;;
3427;SDS011;1727;42.624;23.406;2023-09-30T08:03:45;15.23;;;8.10;;
3427;SDS011;1727;42.624;23.406;2023-09-30T08:06:12;13.17;;;9.17;;
3427;SDS011;1727;42.624;23.406;2023-09-30T08:08:39;11.83;;;7.17;;
3427;SDS011;1727;42.624;23.406;2023-09-30T08:11:06;16.10;;;8.20;;
3427;SDS011;1727;42.624;23.406;2023-09-30T08:13:32;12.63;;;7.13;;
3427;SDS011;1727;42.624;23.406;2023-09-30T08:16:01;21.93;;;7.57;;
3427;SDS011;1727;42.624;23.406;2023-09-30T08:18:28;14.77;;;8.10;;
3427;SDS011;1727;42.624;23.406;2023-09-30T08:20:54;10.83;;;8.40;;
3427;SDS011;1727;42.624;23.406;2023-09-30T08:23:21;17.87;;;8.30;;
3427;SDS011;1727;42.624;23.406;2023-09-30T08:25:48;13.87;;;7.53;;
3427;SDS011;1727;42.624;23.406;2023-09-30T08:28:15;17.10;;;9.57;;
3427;SDS011;1727;42.624;23.406;2023-09-30T08:30:42;12.77;;;7.40;;
3427;SDS011;1727;42.624;23.406;2023-09-30T08:33:11;11.97;;;7.17;;
3427;SDS011;1727;42.624;23.406;2023-09-30T08:35:37;13.13;;;7.43;;
3427;SDS011;1727;42.624;23.406;2023-09-30T08:38:04;22.70;;;9.43;;
3427;SDS011;1727;42.624;23.406;2023-09-30T08:40:31;28.23;;;10.50;;
3427;SDS011;1727;42.624;23.406;2023-09-30T08:42:58;13.67;;;8.40;;
3427;SDS011;1727;42.624;23.406;2023-09-30T08:45:27;16.17;;;9.40;;
3427;SDS011;1727;42.624;23.406;2023-09-30T08:47:54;12.57;;;8.90;;
3427;SDS011;1727;42.624;23.406;2023-09-30T08:50:23;18.60;;;9.10;;
3427;SDS011;1727;42.624;23.406;2023-09-30T08:52:50;12.10;;;9.73;;
3427;SDS011;1727;42.624;23.406;2023-09-30T08:55:18;20.30;;;9.33;;
3427;SDS011;1727;42.624;23.406;2023-09-30T08:57:45;15.30;;;10.70;;
3427;SDS011;1727;42.624;23.406;2023-09-30T09:00:12;15.50;;;8.90;;
3427;SDS011;1727;42.624;23.406;2023-09-30T09:02:41;14.30;;;9.77;;
3427;SDS011;1727;42.624;23.406;2023-09-30T09:05:09;13.67;;;9.00;;
3427;SDS011;1727;42.624;23.406;2023-09-30T09:07:37;16.30;;;9.60;;
3427;SDS011;1727;42.624;23.406;2023-09-30T09:10:05;12.93;;;8.90;;
3427;SDS011;1727;42.624;23.406;2023-09-30T09:12:34;15.67;;;9.40;;
3427;SDS011;1727;42.624;23.406;2023-09-30T09:15:02;19.00;;;10.70;;
3427;SDS011;1727;42.624;23.406;2023-09-30T09:20:17;18.77;;;8.90;;
3427;SDS011;1727;42.624;23.406;2023-09-30T09:22:48;17.60;;;8.60;;
3427;SDS011;1727;42.624;23.406;2023-09-30T09:25:18;14.40;;;9.50;;
3427;SDS011;1727;42.624;23.406;2023-09-30T09:27:44;10.70;;;8.77;;
3427;SDS011;1727;42.624;23.406;2023-09-30T09:30:15;11.30;;;9.30;;
3427;SDS011;1727;42.624;23.406;2023-09-30T09:32:59;21.23;;;9.53;;
3427;SDS011;1727;42.624;23.406;2023-09-30T09:35:27;13.47;;;9.73;;
3427;SDS011;1727;42.624;23.406;2023-09-30T09:37:58;14.27;;;9.00;;
3427;SDS011;1727;42.624;23.406;2023-09-30T09:40:26;13.87;;;8.53;;
3427;SDS011;1727;42.624;23.406;2023-09-30T09:42:56;10.80;;;8.50;;
3427;SDS011;1727;42.624;23.406;2023-09-30T09:45:24;12.90;;;8.43;;
3427;SDS011;1727;42.624;23.406;2023-09-30T09:47:53;10.57;;;8.10;;
3427;SDS011;1727;42.624;23.406;2023-09-30T09:50:20;9.50;;;7.10;;
3427;SDS011;1727;42.624;23.406;2023-09-30T09:52:48;13.97;;;8.40;;
3427;SDS011;1727;42.624;23.406;2023-09-30T09:55:18;14.33;;;7.97;;
3427;SDS011;1727;42.624;23.406;2023-09-30T09:57:47;9.23;;;7.50;;
3427;SDS011;1727;42.624;23.406;2023-09-30T10:00:15;9.13;;;8.17;;
3427;SDS011;1727;42.624;23.406;2023-09-30T10:02:44;12.43;;;8.00;;
3427;SDS011;1727;42.624;23.406;2023-09-30T10:05:11;10.60;;;7.70;;
3427;SDS011;1727;42.624;23.406;2023-09-30T10:07:40;9.27;;;6.83;;
3427;SDS011;1727;42.624;23.406;2023-09-30T10:10:12;8.27;;;7.13;;
3427;SDS011;1727;42.624;23.406;2023-09-30T10:12:43;9.40;;;7.10;;
3427;SDS011;1727;42.624;23.406;2023-09-30T10:18:06;12.60;;;7.63;;
3427;SDS011;1727;42.624;23.406;2023-09-30T10:20:35;13.10;;;9.03;;
3427;SDS011;1727;42.624;23.406;2023-09-30T10:23:22;9.77;;;8.00;;
3427;SDS011;1727;42.624;23.406;2023-09-30T10:25:51;9.83;;;8.00;;
3427;SDS011;1727;42.624;23.406;2023-09-30T10:31:09;9.50;;;6.33;;
3427;SDS011;1727;42.624;23.406;2023-09-30T10:36:38;7.10;;;6.40;;
3427;SDS011;1727;42.624;23.406;2023-09-30T10:39:10;8.97;;;6.13;;
3427;SDS011;1727;42.624;23.406;2023-09-30T10:41:50;6.13;;;5.53;;
3427;SDS011;1727;42.624;23.406;2023-09-30T10:44:34;8.80;;;6.30;;
3427;SDS011;1727;42.624;23.406;2023-09-30T10:50:03;8.97;;;4.90;;
3427;SDS011;1727;42.624;23.406;2023-09-30T10:52:50;12.43;;;5.07;;
3427;SDS011;1727;42.624;23.406;2023-09-30T10:55:19;6.90;;;5.10;;
3427;SDS011;1727;42.624;23.406;2023-09-30T10:57:50;8.17;;;5.30;;
3427;SDS011;1727;42.624;23.406;2023-09-30T11:00:19;6.50;;;5.60;;
3427;SDS011;1727;42.624;23.406;2023-09-30T11:02:51;7.67;;;5.20;;
3427;SDS011;1727;42.624;23.406;2023-09-30T11:05:18;8.07;;;5.67;;
3427;SDS011;1727;42.624;23.406;2023-09-30T11:07:47;6.33;;;4.60;;
3427;SDS011;1727;42.624;23.406;2023-09-30T11:10:16;9.40;;;4.30;;
3427;SDS011;1727;42.624;23.406;2023-09-30T11:12:53;6.80;;;5.10;;
3427;SDS011;1727;42.624;23.406;2023-09-30T11:15:23;11.07;;;4.93;;
3427;SDS011;1727;42.624;23.406;2023-09-30T11:17:50;10.50;;;4.77;;
3427;SDS011;1727;42.624;23.406;2023-09-30T11:20:18;13.23;;;4.80;;
3427;SDS011;1727;42.624;23.406;2023-09-30T11:22:46;10.27;;;5.50;;
3427;SDS011;1727;42.624;23.406;2023-09-30T11:25:16;11.80;;;5.40;;
3427;SDS011;1727;42.624;23.406;2023-09-30T11:27:44;6.43;;;5.07;;
3427;SDS011;1727;42.624;23.406;2023-09-30T11:30:12;16.00;;;5.67;;
3427;SDS011;1727;42.624;23.406;2023-09-30T11:32:41;6.30;;;4.30;;
3427;SDS011;1727;42.624;23.406;2023-09-30T11:35:09;5.83;;;4.97;;
3427;SDS011;1727;42.624;23.406;2023-09-30T11:37:37;12.90;;;6.37;;
3427;SDS011;1727;42.624;23.406;2023-09-30T11:40:11;6.27;;;5.70;;
3427;SDS011;1727;42.624;23.406;2023-09-30T11:42:39;5.83;;;5.23;;
3427;SDS011;1727;42.624;23.406;2023-09-30T11:47:50;8.77;;;5.57;;
3427;SDS011;1727;42.624;23.406;2023-09-30T11:50:17;9.60;;;5.83;;
3427;SDS011;1727;42.624;23.406;2023-09-30T11:52:44;7.40;;;6.50;;
3427;SDS011;1727;42.624;23.406;2023-09-30T11:55:12;12.43;;;5.87;;
3427;SDS011;1727;42.624;23.406;2023-09-30T11:57:41;12.53;;;6.10;;
3427;SDS011;1727;42.624;23.406;2023-09-30T12:00:08;9.40;;;6.37;;
3427;SDS011;1727;42.624;23.406;2023-09-30T12:02:38;9.47;;;5.80;;
3427;SDS011;1727;42.624;23.406;2023-09-30T12:05:08;10.37;;;6.37;;
3427;SDS011;1727;42.624;23.406;2023-09-30T12:07:37;7.37;;;6.53;;
3427;SDS011;1727;42.624;23.406;2023-09-30T12:10:07;7.87;;;6.03;;
3427;SDS011;1727;42.624;23.406;2023-09-30T12:12:34;24.17;;;7.00;;
3427;SDS011;1727;42.624;23.406;2023-09-30T12:15:01;7.93;;;6.00;;
3427;SDS011;1727;42.624;23.406;2023-09-30T12:17:29;9.97;;;5.50;;
3427;SDS011;1727;42.624;23.406;2023-09-30T12:19:58;7.53;;;5.63;;
3427;SDS011;1727;42.624;23.406;2023-09-30T12:22:29;12.13;;;6.10;;
3427;SDS011;1727;42.624;23.406;2023-09-30T12:24:56;11.00;;;5.97;;
3427;SDS011;1727;42.624;23.406;2023-09-30T12:27:22;13.77;;;7.00;;
3427;SDS011;1727;42.624;23.406;2023-09-30T12:29:50;13.13;;;7.10;;
3427;SDS011;1727;42.624;23.406;2023-09-30T12:32:17;12.77;;;6.77;;
3427;SDS011;1727;42.624;23.406;2023-09-30T12:34:43;7.90;;;6.73;;
3427;SDS011;1727;42.624;23.406;2023-09-30T12:37:10;6.87;;;5.93;;
3427;SDS011;1727;42.624;23.406;2023-09-30T12:39:39;14.23;;;7.50;;
3427;SDS011;1727;42.624;23.406;2023-09-30T12:42:06;9.47;;;7.50;;
3427;SDS011;1727;42.624;23.406;2023-09-30T12:44:34;11.50;;;6.70;;
3427;SDS011;1727;42.624;23.406;2023-09-30T12:47:01;7.70;;;6.90;;
3427;SDS011;1727;42.624;23.406;2023-09-30T12:49:30;14.20;;;6.30;;
3427;SDS011;1727;42.624;23.406;2023-09-30T12:51:56;8.63;;;6.70;;
3427;SDS011;1727;42.624;23.406;2023-09-30T12:54:24;14.13;;;6.50;;
3427;SDS011;1727;42.624;23.406;2023-09-30T12:56:52;13.67;;;7.00;;
3427;SDS011;1727;42.624;23.406;2023-09-30T12:59:19;6.50;;;5.90;;
3427;SDS011;1727;42.624;23.406;2023-09-30T13:01:49;7.10;;;6.50;;
3427;SDS011;1727;42.624;23.406;2023-09-30T13:04:16;8.70;;;6.20;;
3427;SDS011;1727;42.624;23.406;2023-09-30T13:06:43;8.50;;;6.80;;
3427;SDS011;1727;42.624;23.406;2023-09-30T13:09:10;19.40;;;6.80;;
3427;SDS011;1727;42.624;23.406;2023-09-30T13:11:38;10.90;;;6.40;;
3427;SDS011;1727;42.624;23.406;2023-09-30T13:14:08;10.53;;;6.40;;
3427;SDS011;1727;42.624;23.406;2023-09-30T13:16:34;11.37;;;6.30;;
3427;SDS011;1727;42.624;23.406;2023-09-30T13:19:01;11.37;;;5.83;;
3427;SDS011;1727;42.624;23.406;2023-09-30T13:21:28;9.37;;;6.77;;
3427;SDS011;1727;42.624;23.406;2023-09-30T13:23:55;8.83;;;6.60;;
3427;SDS011;1727;42.624;23.406;2023-09-30T13:26:24;10.00;;;6.20;;
3427;SDS011;1727;42.624;23.406;2023-09-30T13:28:51;7.23;;;6.13;;
3427;SDS011;1727;42.624;23.406;2023-09-30T13:31:20;8.70;;;5.83;;
3427;SDS011;1727;42.624;23.406;2023-09-30T13:33:47;10.70;;;6.80;;
3427;SDS011;1727;42.624;23.406;2023-09-30T13:36:13;6.50;;;5.90;;
3427;SDS011;1727;42.624;23.406;2023-09-30T13:38:40;10.10;;;6.57;;
3427;SDS011;1727;42.624;23.406;2023-09-30T13:41:07;12.90;;;5.80;;
3427;SDS011;1727;42.624;23.406;2023-09-30T13:43:34;7.03;;;6.33;;
3427;SDS011;1727;42.624;23.406;2023-09-30T13:46:03;13.10;;;6.43;;
3427;SDS011;1727;42.624;23.406;2023-09-30T13:48:33;10.73;;;6.83;;
3427;SDS011;1727;42.624;23.406;2023-09-30T13:51:04;16.13;;;6.40;;
3427;SDS011;1727;42.624;23.406;2023-09-30T13:53:31;13.03;;;6.70;;
3427;SDS011;1727;42.624;23.406;2023-09-30T13:55:58;7.10;;;6.30;;
3427;SDS011;1727;42.624;23.406;2023-09-30T13:58:25;8.63;;;6.87;;
3427;SDS011;1727;42.624;23.406;2023-09-30T14:00:52;7.60;;;6.73;;
3427;SDS011;1727;42.624;23.406;2023-09-30T14:03:19;12.23;;;7.23;;
3427;SDS011;1727;42.624;23.406;2023-09-30T14:05:47;17.10;;;7.37;;
3427;SDS011;1727;42.624;23.406;2023-09-30T14:08:16;10.23;;;7.20;;
3427;SDS011;1727;42.624;23.406;2023-09-30T14:10:43;8.63;;;6.90;;
3427;SDS011;1727;42.624;23.406;2023-09-30T14:13:10;6.17;;;5.57;;
3427;SDS011;1727;42.624;23.406;2023-09-30T14:15:36;8.37;;;6.90;;
3427;SDS011;1727;42.624;23.406;2023-09-30T14:18:04;10.80;;;6.53;;
3427;SDS011;1727;42.624;23.406;2023-09-30T14:20:31;10.17;;;7.20;;
3427;SDS011;1727;42.624;23.406;2023-09-30T14:23:00;11.93;;;6.03;;
3427;SDS011;1727;42.624;23.406;2023-09-30T14:25:27;14.60;;;6.77;;
3427;SDS011;1727;42.624;23.406;2023-09-30T14:27:54;15.53;;;6.60;;
3427;SDS011;1727;42.624;23.406;2023-09-30T14:30:21;9.60;;;6.70;;
3427;SDS011;1727;42.624;23.406;2023-09-30T14:32:49;9.47;;;6.60;;
3427;SDS011;1727;42.624;23.406;2023-09-30T14:35:16;8.03;;;5.50;;
3427;SDS011;1727;42.624;23.406;2023-09-30T14:37:43;9.43;;;6.97;;
3427;SDS011;1727;42.624;23.406;2023-09-30T14:40:13;7.93;;;6.17;;
3427;SDS011;1727;42.624;23.406;2023-09-30T14:42:41;8.30;;;7.47;;
3427;SDS011;1727;42.624;23.406;2023-09-30T14:45:08;12.23;;;6.87;;
3427;SDS011;1727;42.624;23.406;2023-09-30T14:47:36;8.70;;;6.33;;
3427;SDS011;1727;42.624;23.406;2023-09-30T14:50:03;12.20;;;6.40;;
3427;SDS011;1727;42.624;23.406;2023-09-30T14:52:32;10.30;;;7.07;;
3427;SDS011;1727;42.624;23.406;2023-09-30T14:54:59;15.47;;;6.40;;
3427;SDS011;1727;42.624;23.406;2023-09-30T14:57:27;9.83;;;5.77;;
3427;SDS011;1727;42.624;23.406;2023-09-30T14:59:56;10.03;;;6.70;;
3427;SDS011;1727;42.624;23.406;2023-09-30T15:02:24;9.10;;;5.40;;
3427;SDS011;1727;42.624;23.406;2023-09-30T15:04:51;8.07;;;6.00;;
3427;SDS011;1727;42.624;23.406;2023-09-30T15:07:18;12.17;;;6.20;;
3427;SDS011;1727;42.624;23.406;2023-09-30T15:09:45;8.53;;;5.73;;
3427;SDS011;1727;42.624;23.406;2023-09-30T15:12:12;8.10;;;6.30;;